createdAt,value
2023-03-07T00:01:38.602Z,7.55
2023-03-07T00:04:06.562Z,7.54
2023-03-07T00:06:34.375Z,7.56
2023-03-07T00:09:03.605Z,7.55
2023-03-07T00:11:31.330Z,7.56
2023-03-07T00:14:00.415Z,7.55
2023-03-07T00:16:28.220Z,7.55
2023-03-07T00:18:56.385Z,7.55
2023-03-07T00:21:24.149Z,7.54
2023-03-07T00:23:54.213Z,7.54
2023-03-07T00:26:23.661Z,7.53
2023-03-07T00:28:53.081Z,7.51
2023-03-07T00:31:23.739Z,7.49
2023-03-07T00:33:51.571Z,7.50
2023-03-07T00:36:21.413Z,7.50
2023-03-07T00:38:49.448Z,7.50
2023-03-07T00:41:19.743Z,7.49
2023-03-07T00:43:48.099Z,7.50
2023-03-07T00:46:16.893Z,7.50
2023-03-07T00:48:46.501Z,7.51
2023-03-07T00:51:15.857Z,7.54
2023-03-07T00:53:44.772Z,7.53
2023-03-07T00:56:15.777Z,7.54
2023-03-07T00:58:44.190Z,7.51
2023-03-07T01:01:14.959Z,7.50
2023-03-07T01:03:43.068Z,7.48
2023-03-07T01:06:14.995Z,7.49
2023-03-07T01:08:43.269Z,7.48
2023-03-07T01:11:12.959Z,7.46
2023-03-07T01:13:40.921Z,7.47
2023-03-07T01:16:10.379Z,7.47
2023-03-07T01:18:38.225Z,7.45
2023-03-07T01:21:15.501Z,7.45
2023-03-07T01:23:43.312Z,7.45
2023-03-07T01:29:52.158Z,7.45
2023-03-07T01:32:19.930Z,7.44
2023-03-07T01:34:47.615Z,7.43
2023-03-07T01:37:16.665Z,7.41
2023-03-07T01:39:44.350Z,7.42
2023-03-07T01:42:12.106Z,7.42
2023-03-07T01:45:06.694Z,7.43
2023-03-07T01:47:34.435Z,7.42
2023-03-07T01:50:07.407Z,7.42
2023-03-07T01:52:40.926Z,7.43
2023-03-07T01:55:12.757Z,7.39
2023-03-07T01:57:43.851Z,7.42
2023-03-07T02:00:18.623Z,7.41
2023-03-07T02:02:52.940Z,7.43
2023-03-07T02:05:25.327Z,7.41
2023-03-07T02:07:57.015Z,7.41
2023-03-07T02:10:25.712Z,7.39
2023-03-07T02:12:54.921Z,7.40
2023-03-07T02:15:22.902Z,7.37
2023-03-07T02:17:51.124Z,7.36
2023-03-07T02:20:32.580Z,7.35
2023-03-07T02:23:04.150Z,7.35
2023-03-07T02:25:38.028Z,7.34
2023-03-07T02:28:10.425Z,7.33
2023-03-07T02:30:38.514Z,7.35
2023-03-07T02:33:06.314Z,7.34
2023-03-07T02:35:33.983Z,7.34
2023-03-07T02:38:05.810Z,7.33
2023-03-07T02:40:33.907Z,7.33
2023-03-07T02:43:05.970Z,7.34
2023-03-07T02:45:35.081Z,7.33
2023-03-07T02:48:02.822Z,7.34
2023-03-07T02:50:30.481Z,7.34
2023-03-07T02:52:58.172Z,7.33
2023-03-07T02:55:25.952Z,7.33
2023-03-07T02:57:54.454Z,7.32
2023-03-07T03:00:22.944Z,7.34
2023-03-07T03:02:52.050Z,7.32
2023-03-07T03:05:19.713Z,7.33
2023-03-07T03:07:48.512Z,7.32
2023-03-07T03:10:16.481Z,7.32
2023-03-07T03:12:44.541Z,7.31
2023-03-07T03:15:13.059Z,7.30
2023-03-07T03:17:40.869Z,7.30
2023-03-07T03:20:13.016Z,7.28
2023-03-07T03:22:41.027Z,7.28
2023-03-07T03:25:11.250Z,7.27
2023-03-07T03:27:39.853Z,7.27
2023-03-07T03:30:10.280Z,7.27
2023-03-07T03:32:38.390Z,7.27
2023-03-07T03:35:06.997Z,7.25
2023-03-07T03:37:36.140Z,7.25
2023-03-07T03:40:05.455Z,7.25
2023-03-07T03:42:33.257Z,7.24
2023-03-07T03:45:00.935Z,7.24
2023-03-07T03:47:28.640Z,7.23
2023-03-07T03:49:56.305Z,7.22
2023-03-07T03:52:24.432Z,7.21
2023-03-07T03:54:53.480Z,7.18
2023-03-07T03:57:21.158Z,7.19
2023-03-07T03:59:49.180Z,7.16
2023-03-07T04:02:17.028Z,7.17
2023-03-07T04:04:44.940Z,7.18
2023-03-07T04:07:12.654Z,7.17
2023-03-07T04:09:40.357Z,7.17
2023-03-07T04:12:09.904Z,7.18
2023-03-07T04:14:37.583Z,7.19
2023-03-07T04:17:05.335Z,7.17
2023-03-07T04:19:33.080Z,7.18
2023-03-07T04:22:00.783Z,7.17
2023-03-07T04:24:28.651Z,7.17
2023-03-07T04:26:56.334Z,7.17
2023-03-07T04:29:26.687Z,7.16
2023-03-07T04:31:54.483Z,7.17
2023-03-07T04:34:22.265Z,7.17
2023-03-07T04:36:49.977Z,7.18
2023-03-07T04:39:17.654Z,7.18
2023-03-07T04:41:45.477Z,7.18
2023-03-07T04:44:14.144Z,7.18
2023-03-07T04:46:43.220Z,7.17
2023-03-07T04:49:10.926Z,7.16
2023-03-07T04:51:38.659Z,7.16
2023-03-07T04:54:06.482Z,7.17
2023-03-07T04:56:34.172Z,7.17
2023-03-07T04:59:01.879Z,7.17
2023-03-07T05:01:29.648Z,7.18
2023-03-07T05:03:58.757Z,7.18
2023-03-07T05:06:26.482Z,7.18
2023-03-07T05:08:54.162Z,7.16
2023-03-07T05:11:21.895Z,7.13
2023-03-07T05:13:49.697Z,7.15
2023-03-07T05:16:18.424Z,7.13
2023-03-07T05:18:46.166Z,7.11
2023-03-07T05:21:15.256Z,7.10
2023-03-07T05:23:42.995Z,7.11
2023-03-07T05:26:10.718Z,7.10
2023-03-07T05:28:38.751Z,7.11
2023-03-07T05:31:07.039Z,7.11
2023-03-07T05:33:34.850Z,7.10
2023-03-07T05:36:03.796Z,7.10
2023-03-07T05:38:32.956Z,7.10
2023-03-07T05:41:00.666Z,7.09
2023-03-07T05:43:28.444Z,7.10
2023-03-07T05:45:56.217Z,7.09
2023-03-07T05:48:23.892Z,7.09
2023-03-07T05:50:51.585Z,7.10
2023-03-07T05:53:19.407Z,7.11
2023-03-07T05:55:48.504Z,7.10
2023-03-07T05:58:16.171Z,7.11
2023-03-07T06:00:43.885Z,7.09
2023-03-07T06:03:11.593Z,7.09
2023-03-07T06:05:39.306Z,7.08
2023-03-07T06:08:07.414Z,7.08
2023-03-07T06:10:35.132Z,7.06
2023-03-07T06:13:04.275Z,7.04
2023-03-07T06:15:32.076Z,7.04
2023-03-07T06:18:00.921Z,7.04
2023-03-07T06:20:28.648Z,7.01
2023-03-07T06:22:56.432Z,7.00
2023-03-07T06:25:24.120Z,6.99
2023-03-07T06:27:51.870Z,7.00
2023-03-07T06:30:21.040Z,6.97
2023-03-07T06:32:48.734Z,6.95
2023-03-07T06:35:16.515Z,6.94
2023-03-07T06:37:44.266Z,6.93
2023-03-07T06:40:12.896Z,6.94
2023-03-07T06:42:40.725Z,6.93
2023-03-07T06:45:09.229Z,6.91
2023-03-07T06:47:38.339Z,6.90
2023-03-07T06:50:06.966Z,6.90
2023-03-07T06:52:34.694Z,6.88
2023-03-07T06:55:02.385Z,6.89
2023-03-07T06:57:30.696Z,6.91
2023-03-07T06:59:58.391Z,6.91
2023-03-07T07:02:26.230Z,6.91
2023-03-07T07:04:55.395Z,6.89
2023-03-07T07:07:23.097Z,6.87
2023-03-07T07:09:50.775Z,6.84
2023-03-07T07:12:18.596Z,6.80
2023-03-07T07:14:46.382Z,6.76
2023-03-07T07:17:14.156Z,6.67
2023-03-07T07:19:41.902Z,6.63
2023-03-07T07:22:12.069Z,6.63
2023-03-07T07:24:40.984Z,6.61
2023-03-07T07:27:09.130Z,6.59
2023-03-07T07:29:37.634Z,6.54
2023-03-07T07:32:06.460Z,6.53
2023-03-07T07:34:34.273Z,6.52
2023-03-07T07:37:02.037Z,6.52
2023-03-07T07:39:31.154Z,6.53
2023-03-07T07:41:58.844Z,6.55
2023-03-07T07:44:26.707Z,6.53
2023-03-07T07:46:54.541Z,6.53
2023-03-07T07:49:23.001Z,6.52
2023-03-07T07:51:50.753Z,6.54
2023-03-07T07:54:18.501Z,6.53
2023-03-07T07:56:47.698Z,6.52
2023-03-07T07:59:15.456Z,6.51
2023-03-07T08:01:43.416Z,6.46
2023-03-07T08:04:11.250Z,6.42
2023-03-07T08:06:39.679Z,6.42
2023-03-07T08:09:07.447Z,6.41
2023-03-07T08:11:35.691Z,6.44
2023-03-07T08:14:04.821Z,6.43
2023-03-07T08:16:32.620Z,6.43
2023-03-07T08:19:00.876Z,6.43
2023-03-07T08:21:29.013Z,6.43
2023-03-07T08:23:57.056Z,6.42
2023-03-07T08:26:25.541Z,6.41
2023-03-07T08:28:53.360Z,6.39
2023-03-07T08:31:24.869Z,6.39
2023-03-07T08:33:53.220Z,6.37
2023-03-07T08:36:21.418Z,6.38
2023-03-07T08:38:52.134Z,6.38
2023-03-07T08:41:20.818Z,6.37
2023-03-07T08:43:48.584Z,6.28
2023-03-07T08:46:16.903Z,6.36
2023-03-07T08:48:46.213Z,6.35
2023-03-07T08:51:16.808Z,6.33
2023-03-07T08:53:46.190Z,6.32
2023-03-07T08:56:16.385Z,6.32
2023-03-07T08:58:44.805Z,6.35
2023-03-07T09:01:13.315Z,6.36
2023-03-07T09:03:41.615Z,6.38
2023-03-07T09:06:17.078Z,6.39
2023-03-07T09:08:45.360Z,6.38
2023-03-07T09:11:13.061Z,6.38
2023-03-07T09:13:51.531Z,6.38
2023-03-07T09:16:20.311Z,6.39
2023-03-07T09:18:48.192Z,6.41
2023-03-07T09:21:17.418Z,6.40
2023-03-07T09:23:45.171Z,6.41
2023-03-07T09:26:13.152Z,6.40
2023-03-07T09:28:41.377Z,6.41
2023-03-07T09:31:10.295Z,6.41
2023-03-07T09:33:38.732Z,6.40
2023-03-07T09:36:07.464Z,6.41
2023-03-07T09:38:37.142Z,6.40
2023-03-07T09:41:16.774Z,6.40
2023-03-07T09:43:51.504Z,6.40
2023-03-07T09:46:30.890Z,6.38
2023-03-07T09:49:17.594Z,6.36
2023-03-07T09:51:47.248Z,6.33
2023-03-07T09:54:18.354Z,6.38
2023-03-07T09:56:50.064Z,6.37
2023-03-07T09:59:23.920Z,6.35
2023-03-07T10:01:56.606Z,6.36
2023-03-07T10:04:30.232Z,6.36
2023-03-07T10:07:00.848Z,6.34
2023-03-07T10:09:30.176Z,6.33
2023-03-07T10:12:24.771Z,6.32
2023-03-07T10:15:10.310Z,6.31
2023-03-07T10:17:53.667Z,6.33
2023-03-07T10:20:30.359Z,6.31
2023-03-07T10:23:07.162Z,6.30
2023-03-07T10:25:41.933Z,6.30
2023-03-07T10:28:21.828Z,6.30
2023-03-07T10:30:52.204Z,6.29
2023-03-07T10:33:21.375Z,6.32
2023-03-07T10:35:55.405Z,6.30
2023-03-07T10:38:29.840Z,6.29
2023-03-07T10:41:02.822Z,6.30
2023-03-07T10:43:33.080Z,6.30
2023-03-07T10:46:05.779Z,6.29
2023-03-07T10:48:41.037Z,6.30
2023-03-07T10:51:22.060Z,6.29
2023-03-07T10:53:51.458Z,6.30
2023-03-07T10:56:20.604Z,6.29
2023-03-07T10:59:02.448Z,6.30
2023-03-07T11:01:31.223Z,6.29
2023-03-07T11:04:02.943Z,6.30
2023-03-07T11:06:41.412Z,6.30
2023-03-07T11:09:15.247Z,6.29
2023-03-07T11:11:49.981Z,6.30
2023-03-07T11:14:18.912Z,6.29
2023-03-07T11:16:51.052Z,6.28
2023-03-07T11:19:33.884Z,6.28
2023-03-07T11:22:03.723Z,6.27
2023-03-07T11:24:37.503Z,6.28
2023-03-07T11:27:07.540Z,6.27
2023-03-07T11:29:35.243Z,6.28
2023-03-07T11:32:11.635Z,6.30
2023-03-07T11:34:45.549Z,6.30
2023-03-07T11:37:31.203Z,6.31
2023-03-07T11:40:11.129Z,6.31
2023-03-07T11:42:46.201Z,6.31
2023-03-07T11:45:28.709Z,6.32
2023-03-07T11:48:06.026Z,6.31
2023-03-07T11:50:35.953Z,6.36
2023-03-07T11:53:24.550Z,6.34
2023-03-07T11:56:06.912Z,6.36
2023-03-07T11:58:52.800Z,6.36
2023-03-07T12:01:31.485Z,6.30
2023-03-07T12:04:29.121Z,6.40
2023-03-07T12:07:12.156Z,6.53
2023-03-07T12:09:49.016Z,6.75
2023-03-07T12:12:37.389Z,6.92
2023-03-07T12:15:25.624Z,7.17
2023-03-07T12:18:04.817Z,7.39
2023-03-07T12:20:44.261Z,7.59
2023-03-07T12:23:19.095Z,7.74
2023-03-07T12:25:50.595Z,7.88
2023-03-07T12:28:25.825Z,7.97
2023-03-07T12:31:08.175Z,8.13
2023-03-07T12:33:49.095Z,8.21
2023-03-07T12:36:24.746Z,8.29
2023-03-07T12:38:59.420Z,8.31
2023-03-07T12:41:41.220Z,8.38
2023-03-07T12:44:17.352Z,8.43
2023-03-07T12:46:51.246Z,8.48
2023-03-07T12:49:25.329Z,8.48
2023-03-07T12:51:59.014Z,8.55
2023-03-07T12:54:30.545Z,8.58
2023-03-07T12:57:03.220Z,8.61
2023-03-07T12:59:35.283Z,8.61
2023-03-07T13:02:07.308Z,8.62
2023-03-07T13:04:37.188Z,8.63
2023-03-07T13:07:10.745Z,8.68
2023-03-07T13:09:41.300Z,8.69
2023-03-07T13:12:30.086Z,8.72
2023-03-07T13:14:59.196Z,8.77
2023-03-07T13:18:02.133Z,8.78
2023-03-07T13:20:44.627Z,8.84
2023-03-07T13:23:24.563Z,8.82
2023-03-07T13:26:04.369Z,8.87
2023-03-07T13:28:46.481Z,8.89
2023-03-07T13:31:30.776Z,8.92
2023-03-07T13:34:41.471Z,8.91
2023-03-07T13:37:49.152Z,8.94
2023-03-07T13:40:39.034Z,9.01
2023-03-07T13:43:28.215Z,9.05
2023-03-07T13:45:58.858Z,9.08
2023-03-07T13:49:02.198Z,9.11
2023-03-07T13:51:30.099Z,9.12
2023-03-07T13:54:02.864Z,9.13
2023-03-07T13:56:36.142Z,9.12
2023-03-07T13:59:12.197Z,9.13
2023-03-07T14:01:46.798Z,9.03
2023-03-07T14:04:24.246Z,8.82
2023-03-07T14:07:04.025Z,8.58
2023-03-07T14:09:40.545Z,8.39
2023-03-07T14:12:16.685Z,8.18
2023-03-07T14:15:02.637Z,8.04
2023-03-07T14:17:53.606Z,7.92
2023-03-07T14:20:31.166Z,7.83
2023-03-07T14:23:13.704Z,7.79
2023-03-07T14:25:42.508Z,7.92
2023-03-07T14:28:21.469Z,8.08
2023-03-07T14:30:56.186Z,8.23
2023-03-07T14:33:31.216Z,8.41
2023-03-07T14:35:59.329Z,8.59
2023-03-07T14:38:28.706Z,8.72
2023-03-07T14:41:20.792Z,8.85
2023-03-07T14:43:58.033Z,8.97
2023-03-07T14:46:37.176Z,8.90
2023-03-07T14:49:24.712Z,8.69
2023-03-07T14:51:52.280Z,8.40
2023-03-07T14:54:25.192Z,8.19
2023-03-07T14:56:55.000Z,8.06
2023-03-07T14:59:28.825Z,7.89
2023-03-07T15:02:00.055Z,7.70
2023-03-07T15:04:31.262Z,7.63
2023-03-07T15:07:01.313Z,7.58
2023-03-07T15:09:30.365Z,7.54
2023-03-07T15:12:04.734Z,7.50
2023-03-07T15:14:41.496Z,7.47
2023-03-07T15:17:16.637Z,7.59
2023-03-07T15:19:49.687Z,7.74
2023-03-07T15:22:23.379Z,7.96
2023-03-07T15:24:52.956Z,8.15
2023-03-07T15:27:25.792Z,8.21
2023-03-07T15:29:54.062Z,8.27
2023-03-07T15:32:34.176Z,8.15
2023-03-07T15:35:05.603Z,7.91
2023-03-07T15:37:34.007Z,7.77
2023-03-07T15:40:03.494Z,7.63
2023-03-07T15:42:31.410Z,7.55
2023-03-07T15:45:00.875Z,7.43
2023-03-07T15:47:31.325Z,7.38
2023-03-07T15:50:01.848Z,7.30
2023-03-07T15:52:33.756Z,7.25
2023-03-07T15:55:05.305Z,7.19
2023-03-07T15:57:37.034Z,7.13
2023-03-07T16:00:07.890Z,7.05
2023-03-07T16:02:44.294Z,7.03
2023-03-07T16:05:37.026Z,6.97
2023-03-07T16:08:12.237Z,6.92
2023-03-07T16:10:43.605Z,6.90
2023-03-07T16:13:15.548Z,6.89
2023-03-07T16:15:43.348Z,6.87
2023-03-07T16:18:23.548Z,6.84
2023-03-07T16:20:51.286Z,6.80
2023-03-07T16:23:20.373Z,6.78
2023-03-07T16:25:48.415Z,6.78
2023-03-07T16:28:16.145Z,6.75
2023-03-07T16:30:45.416Z,6.75
2023-03-07T16:33:14.496Z,6.74
2023-03-07T16:35:42.394Z,6.70
2023-03-07T16:38:10.572Z,6.66
2023-03-07T16:40:44.123Z,6.66
2023-03-07T16:43:34.697Z,6.67
2023-03-07T16:46:04.322Z,6.68
2023-03-07T16:48:32.193Z,6.67
2023-03-07T16:50:59.902Z,6.65
2023-03-07T16:53:27.696Z,6.64
2023-03-07T16:55:59.897Z,6.60
2023-03-07T16:58:31.765Z,6.57
2023-03-07T17:00:59.844Z,6.56
2023-03-07T17:03:29.761Z,6.59
2023-03-07T17:05:57.516Z,6.59
2023-03-07T17:08:25.224Z,6.65
2023-03-07T17:10:53.773Z,6.75
2023-03-07T17:13:23.239Z,6.93
2023-03-07T17:15:51.169Z,6.97
2023-03-07T17:18:18.875Z,6.94
2023-03-07T17:20:46.571Z,6.90
2023-03-07T17:23:14.328Z,6.87
2023-03-07T17:25:42.093Z,6.88
2023-03-07T17:28:13.811Z,6.87
2023-03-07T17:30:45.130Z,7.04
2023-03-07T17:33:14.894Z,7.20
2023-03-07T17:35:42.671Z,7.26
2023-03-07T17:38:10.519Z,7.29
2023-03-07T17:40:38.681Z,7.30
2023-03-07T17:43:06.414Z,7.44
2023-03-07T17:45:34.123Z,7.59
2023-03-07T17:48:03.365Z,7.77
2023-03-07T17:50:31.059Z,8.00
2023-03-07T17:52:59.350Z,8.09
2023-03-07T17:55:27.108Z,8.08
2023-03-07T17:57:54.839Z,7.93
2023-03-07T18:00:23.652Z,7.77
2023-03-07T18:02:51.976Z,7.59
2023-03-07T18:05:21.010Z,7.47
2023-03-07T18:07:51.404Z,7.38
2023-03-07T18:10:19.169Z,7.29
2023-03-07T18:12:47.357Z,7.23
2023-03-07T18:15:17.714Z,7.17
2023-03-07T18:17:48.655Z,7.13
2023-03-07T18:20:18.892Z,7.07
2023-03-07T18:22:48.105Z,7.03
2023-03-07T18:25:17.682Z,7.00
2023-03-07T18:27:46.029Z,7.06
2023-03-07T18:30:15.946Z,7.22
2023-03-07T18:32:45.562Z,7.39
2023-03-07T18:35:16.623Z,7.59
2023-03-07T18:37:45.411Z,7.77
2023-03-07T18:40:15.808Z,7.98
2023-03-07T18:42:43.743Z,8.11
2023-03-07T18:45:12.350Z,8.24
2023-03-07T18:47:40.079Z,8.38
2023-03-07T18:50:09.352Z,8.53
2023-03-07T18:52:37.121Z,8.48
2023-03-07T18:55:05.249Z,8.34
2023-03-07T18:57:34.412Z,8.11
2023-03-07T19:00:02.160Z,7.94
2023-03-07T19:02:30.136Z,7.79
2023-03-07T19:04:57.868Z,7.63
2023-03-07T19:07:25.621Z,7.53
2023-03-07T19:09:53.639Z,7.42
2023-03-07T19:12:21.709Z,7.37
2023-03-07T19:14:50.765Z,7.30
2023-03-07T19:17:18.481Z,7.24
2023-03-07T19:19:46.868Z,7.21
2023-03-07T19:22:14.673Z,7.18
2023-03-07T19:24:44.662Z,7.15
2023-03-07T19:27:12.945Z,7.18
2023-03-07T19:29:40.692Z,7.15
2023-03-07T19:32:09.928Z,7.12
2023-03-07T19:34:37.744Z,7.12
2023-03-07T19:37:05.523Z,7.07
2023-03-07T19:39:33.287Z,7.04
2023-03-07T19:42:01.005Z,7.01
2023-03-07T19:44:28.783Z,6.99
2023-03-07T19:46:56.571Z,6.97
2023-03-07T19:49:26.879Z,6.93
2023-03-07T19:51:54.584Z,6.92
2023-03-07T19:54:22.664Z,6.90
2023-03-07T19:56:50.456Z,6.88
2023-03-07T19:59:18.450Z,6.87
2023-03-07T20:01:46.643Z,6.83
2023-03-07T20:04:16.016Z,6.82
2023-03-07T20:06:45.344Z,6.79
2023-03-07T20:09:14.611Z,6.75
2023-03-07T20:11:43.893Z,6.77
2023-03-07T20:14:12.785Z,6.75
2023-03-07T20:16:40.552Z,6.72
2023-03-07T20:19:10.284Z,6.70
2023-03-07T20:21:38.812Z,6.67
2023-03-07T20:24:09.033Z,6.65
2023-03-07T20:26:39.115Z,6.64
2023-03-07T20:29:08.534Z,6.65
2023-03-07T20:31:36.942Z,6.62
2023-03-07T20:34:04.785Z,6.63
2023-03-07T20:36:34.143Z,6.63
2023-03-07T20:39:03.716Z,6.61
2023-03-07T20:41:34.009Z,6.62
2023-03-07T20:44:03.511Z,6.62
2023-03-07T20:46:32.215Z,6.58
2023-03-07T20:49:01.683Z,6.60
2023-03-07T20:51:31.917Z,6.61
2023-03-07T20:54:01.697Z,6.60
2023-03-07T20:56:32.849Z,6.61
2023-03-07T20:59:01.187Z,6.60
2023-03-07T21:01:31.718Z,6.59
2023-03-07T21:04:05.949Z,6.57
2023-03-07T21:06:34.539Z,6.58
2023-03-07T21:09:03.557Z,6.56
2023-03-07T21:11:32.814Z,6.54
2023-03-07T21:14:00.530Z,6.52
2023-03-07T21:16:29.184Z,6.50
2023-03-07T21:19:01.214Z,6.49
2023-03-07T21:21:30.493Z,6.49
2023-03-07T21:23:58.504Z,6.48
2023-03-07T21:26:27.429Z,6.48
2023-03-07T21:28:57.581Z,6.47
2023-03-07T21:31:27.399Z,6.47
2023-03-07T21:33:56.627Z,6.43
2023-03-07T21:36:26.974Z,6.42
2023-03-07T21:38:55.389Z,6.42
2023-03-07T21:41:24.976Z,6.41
2023-03-07T21:43:53.089Z,6.41
2023-03-07T21:46:22.813Z,6.37
2023-03-07T21:48:50.979Z,6.40
2023-03-07T21:51:19.288Z,6.40
2023-03-07T21:53:47.064Z,6.40
2023-03-07T21:56:17.692Z,6.41
2023-03-07T21:58:48.694Z,6.39
2023-03-07T22:01:18.975Z,6.38
2023-03-07T22:03:48.770Z,6.39
2023-03-07T22:06:17.293Z,6.37
2023-03-07T22:08:45.231Z,6.37
2023-03-07T22:11:14.299Z,6.38
2023-03-07T22:13:42.855Z,6.37
2023-03-07T22:16:13.036Z,6.36
2023-03-07T22:18:40.854Z,6.36
2023-03-07T22:21:13.555Z,6.34
2023-03-07T22:23:41.944Z,6.35
2023-03-07T22:26:12.271Z,6.33
2023-03-07T22:28:41.431Z,6.35
2023-03-07T22:31:11.741Z,6.33
2023-03-07T22:33:39.966Z,6.31
2023-03-07T22:36:12.438Z,6.31
2023-03-07T22:38:40.154Z,6.31
2023-03-07T22:41:10.818Z,6.29
2023-03-07T22:43:39.329Z,6.28
2023-03-07T22:46:08.914Z,6.28
2023-03-07T22:48:37.243Z,6.23
2023-03-07T22:51:05.373Z,6.26
2023-03-07T22:53:35.539Z,6.25
2023-03-07T22:56:03.311Z,6.26
2023-03-07T22:58:31.134Z,6.24
2023-03-07T23:00:58.898Z,6.24
2023-03-07T23:03:26.670Z,6.22
2023-03-07T23:05:59.900Z,6.22
2023-03-07T23:08:27.631Z,6.22
2023-03-07T23:11:02.739Z,6.23
2023-03-07T23:13:30.513Z,6.20
2023-03-07T23:15:58.415Z,6.19
2023-03-07T23:18:26.230Z,6.19
2023-03-07T23:20:53.949Z,6.17
2023-03-07T23:23:21.673Z,6.18
2023-03-07T23:25:49.424Z,6.15
2023-03-07T23:28:18.549Z,6.16
2023-03-07T23:30:46.327Z,6.15
2023-03-07T23:33:14.087Z,6.15
2023-03-07T23:35:41.922Z,6.15
2023-03-07T23:38:11.825Z,6.14
2023-03-07T23:40:39.505Z,6.09
2023-03-07T23:43:07.465Z,6.12
2023-03-07T23:45:36.533Z,6.13
2023-03-07T23:48:04.304Z,6.11
2023-03-07T23:50:32.090Z,6.12
2023-03-07T23:52:59.813Z,6.11
2023-03-07T23:55:27.488Z,6.10
2023-03-07T23:57:55.236Z,6.09
